sensor_id;sensor_type;location;lat;lon;timestamp;temperature;humidity
35246;DHT22;21379;50.962;6.960;2022-09-29T00:02:21;10.60;99.90
35246;DHT22;21379;50.962;6.960;2022-09-29T00:04:48;10.50;99.90
35246;DHT22;21379;50.962;6.960;2022-09-29T00:07:15;10.50;99.90
35246;DHT22;21379;50.962;6.960;2022-09-29T00:09:42;10.50;99.90
35246;DHT22;21379;50.962;6.960;2022-09-29T00:12:09;10.40;99.90
35246;DHT22;21379;50.962;6.960;2022-09-29T00:14:35;10.30;99.90
35246;DHT22;21379;50.962;6.960;2022-09-29T00:17:02;10.30;99.90
35246;DHT22;21379;50.962;6.960;2022-09-29T00:19:31;10.20;99.90
35246;DHT22;21379;50.962;6.960;2022-09-29T00:21:58;10.20;99.90
35246;DHT22;21379;50.962;6.960;2022-09-29T00:24:26;10.20;99.90
35246;DHT22;21379;50.962;6.960;2022-09-29T00:26:53;10.20;99.90
35246;DHT22;21379;50.962;6.960;2022-09-29T00:29:20;10.10;99.90
35246;DHT22;21379;50.962;6.960;2022-09-29T00:31:47;10.10;99.90
35246;DHT22;21379;50.962;6.960;2022-09-29T00:34:14;10.10;99.90
35246;DHT22;21379;50.962;6.960;2022-09-29T00:36:42;10.00;99.90
35246;DHT22;21379;50.962;6.960;2022-09-29T00:39:09;10.00;99.90
35246;DHT22;21379;50.962;6.960;2022-09-29T00:41:38;9.90;99.90
35246;DHT22;21379;50.962;6.960;2022-09-29T00:44:06;9.90;99.90
35246;DHT22;21379;50.962;6.960;2022-09-29T00:46:38;9.80;99.90
35246;DHT22;21379;50.962;6.960;2022-09-29T00:49:13;9.80;99.90
35246;DHT22;21379;50.962;6.960;2022-09-29T00:51:45;9.80;99.90
35246;DHT22;21379;50.962;6.960;2022-09-29T00:54:15;9.60;99.90
35246;DHT22;21379;50.962;6.960;2022-09-29T00:56:43;9.60;99.90
35246;DHT22;21379;50.962;6.960;2022-09-29T00:59:14;9.60;99.90
35246;DHT22;21379;50.962;6.960;2022-09-29T01:01:41;9.50;99.90
35246;DHT22;21379;50.962;6.960;2022-09-29T01:04:11;9.40;99.90
35246;DHT22;21379;50.962;6.960;2022-09-29T01:06:43;9.40;99.90
35246;DHT22;21379;50.962;6.960;2022-09-29T01:09:14;9.40;99.90
35246;DHT22;21379;50.962;6.960;2022-09-29T01:11:41;9.40;99.90
35246;DHT22;21379;50.962;6.960;2022-09-29T01:14:09;9.30;99.90
35246;DHT22;21379;50.962;6.960;2022-09-29T01:16:37;9.30;99.90
35246;DHT22;21379;50.962;6.960;2022-09-29T01:19:10;9.30;99.90
35246;DHT22;21379;50.962;6.960;2022-09-29T01:21:49;9.30;99.90
35246;DHT22;21379;50.962;6.960;2022-09-29T01:27:42;9.30;99.90
35246;DHT22;21379;50.962;6.960;2022-09-29T01:30:19;9.30;99.90
35246;DHT22;21379;50.962;6.960;2022-09-29T01:35:44;9.20;99.90
35246;DHT22;21379;50.962;6.960;2022-09-29T01:38:26;9.20;99.90
35246;DHT22;21379;50.962;6.960;2022-09-29T01:41:02;9.20;99.90
35246;DHT22;21379;50.962;6.960;2022-09-29T01:43:35;9.10;99.90
35246;DHT22;21379;50.962;6.960;2022-09-29T01:46:08;9.10;99.90
35246;DHT22;21379;50.962;6.960;2022-09-29T01:48:43;9.20;99.90
35246;DHT22;21379;50.962;6.960;2022-09-29T01:51:13;9.20;99.90
35246;DHT22;21379;50.962;6.960;2022-09-29T01:53:44;9.20;99.90
35246;DHT22;21379;50.962;6.960;2022-09-29T01:56:17;9.20;99.90
35246;DHT22;21379;50.962;6.960;2022-09-29T01:58:50;9.10;99.90
35246;DHT22;21379;50.962;6.960;2022-09-29T02:01:20;9.10;99.90
35246;DHT22;21379;50.962;6.960;2022-09-29T02:03:51;9.10;99.90
35246;DHT22;21379;50.962;6.960;2022-09-29T02:06:21;9.00;99.90
35246;DHT22;21379;50.962;6.960;2022-09-29T02:08:52;9.10;99.90
35246;DHT22;21379;50.962;6.960;2022-09-29T02:11:19;9.00;99.90
35246;DHT22;21379;50.962;6.960;2022-09-29T02:13:50;9.00;99.90
35246;DHT22;21379;50.962;6.960;2022-09-29T02:16:22;9.00;99.90
35246;DHT22;21379;50.962;6.960;2022-09-29T02:18:53;9.10;99.90
35246;DHT22;21379;50.962;6.960;2022-09-29T02:21:21;9.00;99.90
35246;DHT22;21379;50.962;6.960;2022-09-29T02:23:48;9.10;99.90
35246;DHT22;21379;50.962;6.960;2022-09-29T02:26:16;9.10;99.90
35246;DHT22;21379;50.962;6.960;2022-09-29T02:28:43;9.10;99.90
35246;DHT22;21379;50.962;6.960;2022-09-29T02:31:10;9.10;99.90
35246;DHT22;21379;50.962;6.960;2022-09-29T02:33:37;9.10;99.90
35246;DHT22;21379;50.962;6.960;2022-09-29T02:36:16;9.10;99.90
35246;DHT22;21379;50.962;6.960;2022-09-29T02:38:52;9.00;99.90
35246;DHT22;21379;50.962;6.960;2022-09-29T02:41:31;9.00;99.90
35246;DHT22;21379;50.962;6.960;2022-09-29T02:44:28;9.00;99.90
35246;DHT22;21379;50.962;6.960;2022-09-29T02:47:08;9.00;99.90
35246;DHT22;21379;50.962;6.960;2022-09-29T02:49:53;9.00;99.90
35246;DHT22;21379;50.962;6.960;2022-09-29T02:52:28;9.00;99.90
35246;DHT22;21379;50.962;6.960;2022-09-29T02:55:05;9.00;99.90
35246;DHT22;21379;50.962;6.960;2022-09-29T02:57:40;8.90;99.90
35246;DHT22;21379;50.962;6.960;2022-09-29T03:00:08;8.90;99.90
35246;DHT22;21379;50.962;6.960;2022-09-29T03:02:37;8.90;99.90
35246;DHT22;21379;50.962;6.960;2022-09-29T03:05:05;8.80;99.90
35246;DHT22;21379;50.962;6.960;2022-09-29T03:07:36;8.80;99.90
35246;DHT22;21379;50.962;6.960;2022-09-29T03:10:05;8.90;99.90
35246;DHT22;21379;50.962;6.960;2022-09-29T03:12:32;8.90;99.90
35246;DHT22;21379;50.962;6.960;2022-09-29T03:14:59;8.80;99.90
35246;DHT22;21379;50.962;6.960;2022-09-29T03:17:26;8.80;99.90
35246;DHT22;21379;50.962;6.960;2022-09-29T03:19:53;8.80;99.90
35246;DHT22;21379;50.962;6.960;2022-09-29T03:22:20;8.80;99.90
35246;DHT22;21379;50.962;6.960;2022-09-29T03:24:48;8.70;99.90
35246;DHT22;21379;50.962;6.960;2022-09-29T03:27:15;8.70;99.90
35246;DHT22;21379;50.962;6.960;2022-09-29T03:29:42;8.60;99.90
35246;DHT22;21379;50.962;6.960;2022-09-29T03:32:09;8.60;99.90
35246;DHT22;21379;50.962;6.960;2022-09-29T03:34:36;8.60;99.90
35246;DHT22;21379;50.962;6.960;2022-09-29T03:37:03;8.60;99.90
35246;DHT22;21379;50.962;6.960;2022-09-29T03:39:30;8.60;99.90
35246;DHT22;21379;50.962;6.960;2022-09-29T03:41:59;8.50;99.90
35246;DHT22;21379;50.962;6.960;2022-09-29T03:44:26;8.50;99.90
35246;DHT22;21379;50.962;6.960;2022-09-29T03:46:53;8.50;99.90
35246;DHT22;21379;50.962;6.960;2022-09-29T03:49:20;8.50;99.90
35246;DHT22;21379;50.962;6.960;2022-09-29T03:51:46;8.50;99.90
35246;DHT22;21379;50.962;6.960;2022-09-29T03:54:13;8.50;99.90
35246;DHT22;21379;50.962;6.960;2022-09-29T03:56:40;8.50;99.90
35246;DHT22;21379;50.962;6.960;2022-09-29T03:59:08;8.50;99.90
35246;DHT22;21379;50.962;6.960;2022-09-29T04:01:36;8.50;99.90
35246;DHT22;21379;50.962;6.960;2022-09-29T04:04:04;8.50;99.90
35246;DHT22;21379;50.962;6.960;2022-09-29T04:06:31;8.50;99.90
35246;DHT22;21379;50.962;6.960;2022-09-29T04:08:58;8.40;99.90
35246;DHT22;21379;50.962;6.960;2022-09-29T04:11:25;8.40;99.90
35246;DHT22;21379;50.962;6.960;2022-09-29T04:13:52;8.40;99.90
35246;DHT22;21379;50.962;6.960;2022-09-29T04:16:20;8.40;99.90
35246;DHT22;21379;50.962;6.960;2022-09-29T04:18:47;8.40;99.90
35246;DHT22;21379;50.962;6.960;2022-09-29T04:21:14;8.40;99.90
35246;DHT22;21379;50.962;6.960;2022-09-29T04:23:41;8.30;99.90
35246;DHT22;21379;50.962;6.960;2022-09-29T04:26:08;8.30;99.90
35246;DHT22;21379;50.962;6.960;2022-09-29T04:28:36;8.30;99.90
35246;DHT22;21379;50.962;6.960;2022-09-29T04:31:03;8.30;99.90
35246;DHT22;21379;50.962;6.960;2022-09-29T04:33:32;8.20;99.90
35246;DHT22;21379;50.962;6.960;2022-09-29T04:35:59;8.20;99.90
35246;DHT22;21379;50.962;6.960;2022-09-29T04:38:26;8.20;99.90
35246;DHT22;21379;50.962;6.960;2022-09-29T04:40:53;8.20;99.90
35246;DHT22;21379;50.962;6.960;2022-09-29T04:43:19;8.20;99.90
35246;DHT22;21379;50.962;6.960;2022-09-29T04:45:46;8.20;99.90
35246;DHT22;21379;50.962;6.960;2022-09-29T04:48:13;8.20;99.90
35246;DHT22;21379;50.962;6.960;2022-09-29T04:50:42;8.20;99.90
35246;DHT22;21379;50.962;6.960;2022-09-29T04:53:09;8.20;99.90
35246;DHT22;21379;50.962;6.960;2022-09-29T04:55:36;8.20;99.90
35246;DHT22;21379;50.962;6.960;2022-09-29T04:58:03;8.10;99.90
35246;DHT22;21379;50.962;6.960;2022-09-29T05:00:30;8.00;99.90
35246;DHT22;21379;50.962;6.960;2022-09-29T05:02:57;8.10;99.90
35246;DHT22;21379;50.962;6.960;2022-09-29T05:05:24;8.10;99.90
35246;DHT22;21379;50.962;6.960;2022-09-29T05:07:53;8.10;99.90
35246;DHT22;21379;50.962;6.960;2022-09-29T05:10:20;8.10;99.90
35246;DHT22;21379;50.962;6.960;2022-09-29T05:12:47;8.10;99.90
35246;DHT22;21379;50.962;6.960;2022-09-29T05:15:15;8.20;99.90
35246;DHT22;21379;50.962;6.960;2022-09-29T05:17:43;8.10;99.90
35246;DHT22;21379;50.962;6.960;2022-09-29T05:20:10;8.10;99.90
35246;DHT22;21379;50.962;6.960;2022-09-29T05:22:38;8.10;99.90
35246;DHT22;21379;50.962;6.960;2022-09-29T05:25:07;8.10;99.90
35246;DHT22;21379;50.962;6.960;2022-09-29T05:27:34;8.00;99.90
35246;DHT22;21379;50.962;6.960;2022-09-29T05:30:01;8.00;99.90
35246;DHT22;21379;50.962;6.960;2022-09-29T05:32:28;8.00;99.90
35246;DHT22;21379;50.962;6.960;2022-09-29T05:34:55;7.90;99.90
35246;DHT22;21379;50.962;6.960;2022-09-29T05:37:22;7.90;99.90
35246;DHT22;21379;50.962;6.960;2022-09-29T05:39:49;7.90;99.90
35246;DHT22;21379;50.962;6.960;2022-09-29T05:42:17;8.00;99.90
35246;DHT22;21379;50.962;6.960;2022-09-29T05:44:45;8.00;99.90
35246;DHT22;21379;50.962;6.960;2022-09-29T05:47:11;8.00;99.90
35246;DHT22;21379;50.962;6.960;2022-09-29T05:49:38;8.00;99.90
35246;DHT22;21379;50.962;6.960;2022-09-29T05:52:05;8.00;99.90
35246;DHT22;21379;50.962;6.960;2022-09-29T05:54:32;8.10;99.90
35246;DHT22;21379;50.962;6.960;2022-09-29T05:56:59;8.10;99.90
35246;DHT22;21379;50.962;6.960;2022-09-29T05:59:27;8.10;99.90
35246;DHT22;21379;50.962;6.960;2022-09-29T06:01:54;8.20;99.90
35246;DHT22;21379;50.962;6.960;2022-09-29T06:04:21;8.10;99.90
35246;DHT22;21379;50.962;6.960;2022-09-29T06:06:48;8.20;99.90
35246;DHT22;21379;50.962;6.960;2022-09-29T06:09:14;8.10;99.90
35246;DHT22;21379;50.962;6.960;2022-09-29T06:11:41;8.10;99.90
35246;DHT22;21379;50.962;6.960;2022-09-29T06:14:08;8.10;99.90
35246;DHT22;21379;50.962;6.960;2022-09-29T06:16:36;8.20;99.90
35246;DHT22;21379;50.962;6.960;2022-09-29T06:19:04;8.20;99.90
35246;DHT22;21379;50.962;6.960;2022-09-29T06:21:31;8.20;99.90
35246;DHT22;21379;50.962;6.960;2022-09-29T06:24:00;8.20;99.90
35246;DHT22;21379;50.962;6.960;2022-09-29T06:26:27;8.30;99.90
35246;DHT22;21379;50.962;6.960;2022-09-29T06:28:55;8.30;99.90
35246;DHT22;21379;50.962;6.960;2022-09-29T06:31:24;8.30;99.90
35246;DHT22;21379;50.962;6.960;2022-09-29T06:33:55;8.30;99.90
35246;DHT22;21379;50.962;6.960;2022-09-29T06:36:25;8.30;99.90
35246;DHT22;21379;50.962;6.960;2022-09-29T06:39:11;8.40;99.90
35246;DHT22;21379;50.962;6.960;2022-09-29T06:41:39;8.40;99.90
35246;DHT22;21379;50.962;6.960;2022-09-29T06:44:06;8.40;99.90
35246;DHT22;21379;50.962;6.960;2022-09-29T06:46:33;8.50;99.90
35246;DHT22;21379;50.962;6.960;2022-09-29T06:49:01;8.50;99.90
35246;DHT22;21379;50.962;6.960;2022-09-29T06:51:28;8.50;99.90
35246;DHT22;21379;50.962;6.960;2022-09-29T06:53:55;8.50;99.90
35246;DHT22;21379;50.962;6.960;2022-09-29T06:56:22;8.50;99.90
35246;DHT22;21379;50.962;6.960;2022-09-29T06:58:49;8.50;99.90
35246;DHT22;21379;50.962;6.960;2022-09-29T07:01:15;8.60;99.90
35246;DHT22;21379;50.962;6.960;2022-09-29T07:03:43;8.50;99.90
35246;DHT22;21379;50.962;6.960;2022-09-29T07:06:11;8.50;99.90
35246;DHT22;21379;50.962;6.960;2022-09-29T07:08:38;8.50;99.90
35246;DHT22;21379;50.962;6.960;2022-09-29T07:11:05;8.60;99.90
35246;DHT22;21379;50.962;6.960;2022-09-29T07:13:33;8.60;99.90
35246;DHT22;21379;50.962;6.960;2022-09-29T07:16:04;8.70;99.90
35246;DHT22;21379;50.962;6.960;2022-09-29T07:18:32;8.70;99.90
35246;DHT22;21379;50.962;6.960;2022-09-29T07:21:02;8.80;99.90
35246;DHT22;21379;50.962;6.960;2022-09-29T07:23:30;8.80;99.90
35246;DHT22;21379;50.962;6.960;2022-09-29T07:25:57;8.80;99.90
35246;DHT22;21379;50.962;6.960;2022-09-29T07:28:26;8.80;99.90
35246;DHT22;21379;50.962;6.960;2022-09-29T07:31:00;8.90;99.90
35246;DHT22;21379;50.962;6.960;2022-09-29T07:33:27;8.90;99.90
35246;DHT22;21379;50.962;6.960;2022-09-29T07:35:54;9.00;99.90
35246;DHT22;21379;50.962;6.960;2022-09-29T07:38:22;9.00;99.90
35246;DHT22;21379;50.962;6.960;2022-09-29T07:40:50;9.10;99.90
35246;DHT22;21379;50.962;6.960;2022-09-29T07:43:17;9.10;99.90
35246;DHT22;21379;50.962;6.960;2022-09-29T07:45:46;9.20;99.90
35246;DHT22;21379;50.962;6.960;2022-09-29T07:48:13;9.20;99.90
35246;DHT22;21379;50.962;6.960;2022-09-29T07:50:40;9.30;99.90
35246;DHT22;21379;50.962;6.960;2022-09-29T07:53:07;9.30;99.90
35246;DHT22;21379;50.962;6.960;2022-09-29T07:55:34;9.40;99.90
35246;DHT22;21379;50.962;6.960;2022-09-29T07:58:02;9.30;99.90
35246;DHT22;21379;50.962;6.960;2022-09-29T08:00:29;9.30;99.90
35246;DHT22;21379;50.962;6.960;2022-09-29T08:02:59;9.30;99.90
35246;DHT22;21379;50.962;6.960;2022-09-29T08:05:26;9.40;99.90
35246;DHT22;21379;50.962;6.960;2022-09-29T08:07:53;9.40;99.90
35246;DHT22;21379;50.962;6.960;2022-09-29T08:10:20;9.40;99.90
35246;DHT22;21379;50.962;6.960;2022-09-29T08:12:47;9.20;99.90
35246;DHT22;21379;50.962;6.960;2022-09-29T08:15:16;9.30;99.90
35246;DHT22;21379;50.962;6.960;2022-09-29T08:17:42;9.50;99.90
35246;DHT22;21379;50.962;6.960;2022-09-29T08:20:09;9.50;99.90
35246;DHT22;21379;50.962;6.960;2022-09-29T08:22:36;9.50;99.90
35246;DHT22;21379;50.962;6.960;2022-09-29T08:25:03;9.70;99.90
35246;DHT22;21379;50.962;6.960;2022-09-29T08:27:30;9.70;99.90
35246;DHT22;21379;50.962;6.960;2022-09-29T08:29:57;9.80;99.90
35246;DHT22;21379;50.962;6.960;2022-09-29T08:32:26;10.00;99.90
35246;DHT22;21379;50.962;6.960;2022-09-29T08:34:53;10.00;99.90
35246;DHT22;21379;50.962;6.960;2022-09-29T08:37:20;10.20;99.90
35246;DHT22;21379;50.962;6.960;2022-09-29T08:39:46;10.40;99.90
35246;DHT22;21379;50.962;6.960;2022-09-29T08:42:20;10.30;99.90
35246;DHT22;21379;50.962;6.960;2022-09-29T08:44:50;10.40;99.90
35246;DHT22;21379;50.962;6.960;2022-09-29T08:47:26;10.70;99.90
35246;DHT22;21379;50.962;6.960;2022-09-29T08:49:56;10.70;99.90
35246;DHT22;21379;50.962;6.960;2022-09-29T08:52:27;11.00;99.90
35246;DHT22;21379;50.962;6.960;2022-09-29T08:54:59;11.30;99.90
35246;DHT22;21379;50.962;6.960;2022-09-29T08:57:28;11.40;99.90
35246;DHT22;21379;50.962;6.960;2022-09-29T08:59:57;11.70;99.90
35246;DHT22;21379;50.962;6.960;2022-09-29T09:02:55;12.00;99.90
35246;DHT22;21379;50.962;6.960;2022-09-29T09:05:39;12.50;99.90
35246;DHT22;21379;50.962;6.960;2022-09-29T09:08:16;13.00;99.90
35246;DHT22;21379;50.962;6.960;2022-09-29T09:10:52;13.60;99.90
35246;DHT22;21379;50.962;6.960;2022-09-29T09:13:28;13.40;99.90
35246;DHT22;21379;50.962;6.960;2022-09-29T09:16:10;13.80;99.90
35246;DHT22;21379;50.962;6.960;2022-09-29T09:19:02;13.70;99.90
35246;DHT22;21379;50.962;6.960;2022-09-29T09:21:39;14.00;99.90
35246;DHT22;21379;50.962;6.960;2022-09-29T09:24:14;14.10;99.90
35246;DHT22;21379;50.962;6.960;2022-09-29T09:26:44;13.90;99.90
35246;DHT22;21379;50.962;6.960;2022-09-29T09:29:17;13.90;99.90
35246;DHT22;21379;50.962;6.960;2022-09-29T09:31:51;14.10;99.90
35246;DHT22;21379;50.962;6.960;2022-09-29T09:34:27;14.30;99.90
35246;DHT22;21379;50.962;6.960;2022-09-29T09:36:58;14.60;99.90
35246;DHT22;21379;50.962;6.960;2022-09-29T09:39:28;14.90;99.90
35246;DHT22;21379;50.962;6.960;2022-09-29T09:41:59;15.00;99.90
35246;DHT22;21379;50.962;6.960;2022-09-29T09:44:32;14.90;99.90
35246;DHT22;21379;50.962;6.960;2022-09-29T09:47:03;15.10;99.90
35246;DHT22;21379;50.962;6.960;2022-09-29T09:49:34;15.20;99.90
35246;DHT22;21379;50.962;6.960;2022-09-29T09:52:10;15.30;99.90
35246;DHT22;21379;50.962;6.960;2022-09-29T09:54:40;15.50;99.90
35246;DHT22;21379;50.962;6.960;2022-09-29T09:57:42;15.30;99.90
35246;DHT22;21379;50.962;6.960;2022-09-29T10:00:14;15.00;99.90
35246;DHT22;21379;50.962;6.960;2022-09-29T10:02:44;14.80;99.90
35246;DHT22;21379;50.962;6.960;2022-09-29T10:05:14;14.60;99.90
35246;DHT22;21379;50.962;6.960;2022-09-29T10:07:42;14.20;99.90
35246;DHT22;21379;50.962;6.960;2022-09-29T10:10:16;14.30;99.90
35246;DHT22;21379;50.962;6.960;2022-09-29T10:12:43;14.10;99.90
35246;DHT22;21379;50.962;6.960;2022-09-29T10:15:22;14.10;99.90
35246;DHT22;21379;50.962;6.960;2022-09-29T10:17:57;13.80;99.90
35246;DHT22;21379;50.962;6.960;2022-09-29T10:20:32;13.90;99.90
35246;DHT22;21379;50.962;6.960;2022-09-29T10:23:28;13.90;99.90
35246;DHT22;21379;50.962;6.960;2022-09-29T10:26:01;14.20;99.90
35246;DHT22;21379;50.962;6.960;2022-09-29T10:28:37;14.30;99.90
35246;DHT22;21379;50.962;6.960;2022-09-29T10:31:16;14.10;99.90
35246;DHT22;21379;50.962;6.960;2022-09-29T10:33:47;14.10;99.90
35246;DHT22;21379;50.962;6.960;2022-09-29T10:36:16;14.20;99.90
35246;DHT22;21379;50.962;6.960;2022-09-29T10:38:45;14.30;99.90
35246;DHT22;21379;50.962;6.960;2022-09-29T10:41:13;14.30;99.90
35246;DHT22;21379;50.962;6.960;2022-09-29T10:43:41;13.90;99.90
35246;DHT22;21379;50.962;6.960;2022-09-29T10:46:33;13.90;99.90
35246;DHT22;21379;50.962;6.960;2022-09-29T10:49:08;14.10;99.90
35246;DHT22;21379;50.962;6.960;2022-09-29T10:51:38;14.40;99.90
35246;DHT22;21379;50.962;6.960;2022-09-29T10:54:06;14.70;99.90
35246;DHT22;21379;50.962;6.960;2022-09-29T10:56:33;14.60;99.90
35246;DHT22;21379;50.962;6.960;2022-09-29T10:59:01;14.30;99.90
35246;DHT22;21379;50.962;6.960;2022-09-29T11:01:30;14.40;99.90
35246;DHT22;21379;50.962;6.960;2022-09-29T11:04:01;14.50;99.90
35246;DHT22;21379;50.962;6.960;2022-09-29T11:06:31;14.60;99.90
35246;DHT22;21379;50.962;6.960;2022-09-29T11:09:02;14.60;99.90
35246;DHT22;21379;50.962;6.960;2022-09-29T11:11:30;14.60;99.90
35246;DHT22;21379;50.962;6.960;2022-09-29T11:14:00;14.50;99.90
35246;DHT22;21379;50.962;6.960;2022-09-29T11:16:29;14.40;99.90
35246;DHT22;21379;50.962;6.960;2022-09-29T11:19:02;14.30;99.90
35246;DHT22;21379;50.962;6.960;2022-09-29T11:22:07;14.30;99.90
35246;DHT22;21379;50.962;6.960;2022-09-29T11:25:17;14.40;99.90
35246;DHT22;21379;50.962;6.960;2022-09-29T11:27:57;14.60;99.90
35246;DHT22;21379;50.962;6.960;2022-09-29T11:30:34;14.60;99.90
35246;DHT22;21379;50.962;6.960;2022-09-29T11:33:12;14.80;99.90
35246;DHT22;21379;50.962;6.960;2022-09-29T11:35:49;14.80;99.90
35246;DHT22;21379;50.962;6.960;2022-09-29T11:38:34;14.90;99.90
35246;DHT22;21379;50.962;6.960;2022-09-29T11:41:23;15.00;99.90
35246;DHT22;21379;50.962;6.960;2022-09-29T11:43:57;14.80;99.90
35246;DHT22;21379;50.962;6.960;2022-09-29T11:46:35;14.70;99.90
35246;DHT22;21379;50.962;6.960;2022-09-29T11:49:26;14.60;99.90
35246;DHT22;21379;50.962;6.960;2022-09-29T11:52:12;14.60;99.90
35246;DHT22;21379;50.962;6.960;2022-09-29T11:54:57;14.70;99.90
35246;DHT22;21379;50.962;6.960;2022-09-29T11:57:45;14.90;99.90
35246;DHT22;21379;50.962;6.960;2022-09-29T12:00:14;15.00;99.90
35246;DHT22;21379;50.962;6.960;2022-09-29T12:03:14;15.30;99.90
35246;DHT22;21379;50.962;6.960;2022-09-29T12:05:56;15.30;99.90
35246;DHT22;21379;50.962;6.960;2022-09-29T12:08:41;15.30;99.90
35246;DHT22;21379;50.962;6.960;2022-09-29T12:11:13;15.30;99.90
35246;DHT22;21379;50.962;6.960;2022-09-29T12:13:50;15.30;99.90
35246;DHT22;21379;50.962;6.960;2022-09-29T12:16:23;15.10;99.90
35246;DHT22;21379;50.962;6.960;2022-09-29T12:18:55;15.20;99.90
35246;DHT22;21379;50.962;6.960;2022-09-29T12:21:28;15.40;99.90
35246;DHT22;21379;50.962;6.960;2022-09-29T12:23:58;15.60;99.90
35246;DHT22;21379;50.962;6.960;2022-09-29T12:26:27;15.40;99.90
35246;DHT22;21379;50.962;6.960;2022-09-29T12:29:00;15.30;99.90
35246;DHT22;21379;50.962;6.960;2022-09-29T12:31:32;15.40;99.90
35246;DHT22;21379;50.962;6.960;2022-09-29T12:34:03;15.50;99.90
35246;DHT22;21379;50.962;6.960;2022-09-29T12:36:42;15.50;99.90
35246;DHT22;21379;50.962;6.960;2022-09-29T12:39:30;15.50;99.90
35246;DHT22;21379;50.962;6.960;2022-09-29T12:42:06;15.50;99.90
35246;DHT22;21379;50.962;6.960;2022-09-29T12:44:41;15.60;99.90
35246;DHT22;21379;50.962;6.960;2022-09-29T12:47:15;15.60;99.90
35246;DHT22;21379;50.962;6.960;2022-09-29T12:49:57;15.50;99.90
35246;DHT22;21379;50.962;6.960;2022-09-29T12:52:32;15.30;99.90
35246;DHT22;21379;50.962;6.960;2022-09-29T12:55:05;15.20;99.90
35246;DHT22;21379;50.962;6.960;2022-09-29T12:57:36;15.20;99.90
35246;DHT22;21379;50.962;6.960;2022-09-29T13:00:08;15.00;99.90
35246;DHT22;21379;50.962;6.960;2022-09-29T13:05:54;15.00;99.90
35246;DHT22;21379;50.962;6.960;2022-09-29T13:08:49;15.00;99.90
35246;DHT22;21379;50.962;6.960;2022-09-29T13:11:38;15.00;99.90
35246;DHT22;21379;50.962;6.960;2022-09-29T13:14:31;15.20;99.90
35246;DHT22;21379;50.962;6.960;2022-09-29T13:17:25;15.20;99.90
35246;DHT22;21379;50.962;6.960;2022-09-29T13:20:18;15.20;99.90
35246;DHT22;21379;50.962;6.960;2022-09-29T13:23:15;15.50;99.90
35246;DHT22;21379;50.962;6.960;2022-09-29T13:25:54;15.60;99.90
35246;DHT22;21379;50.962;6.960;2022-09-29T13:28:28;15.60;99.90
35246;DHT22;21379;50.962;6.960;2022-09-29T13:30:58;15.50;99.90
35246;DHT22;21379;50.962;6.960;2022-09-29T13:33:28;15.60;99.90
35246;DHT22;21379;50.962;6.960;2022-09-29T13:35:56;15.70;99.90
35246;DHT22;21379;50.962;6.960;2022-09-29T13:38:25;15.80;99.90
35246;DHT22;21379;50.962;6.960;2022-09-29T13:41:11;15.80;99.90
35246;DHT22;21379;50.962;6.960;2022-09-29T13:43:39;16.00;99.90
35246;DHT22;21379;50.962;6.960;2022-09-29T13:46:37;15.90;99.90
35246;DHT22;21379;50.962;6.960;2022-09-29T13:49:28;15.80;99.90
35246;DHT22;21379;50.962;6.960;2022-09-29T13:51:57;15.80;99.90
35246;DHT22;21379;50.962;6.960;2022-09-29T13:54:33;15.70;99.90
35246;DHT22;21379;50.962;6.960;2022-09-29T14:00:18;15.80;99.90
35246;DHT22;21379;50.962;6.960;2022-09-29T14:02:49;15.80;99.90
35246;DHT22;21379;50.962;6.960;2022-09-29T14:05:56;15.80;99.90
35246;DHT22;21379;50.962;6.960;2022-09-29T14:08:34;15.70;99.90
35246;DHT22;21379;50.962;6.960;2022-09-29T14:11:09;15.70;99.90
35246;DHT22;21379;50.962;6.960;2022-09-29T14:13:42;15.60;99.90
35246;DHT22;21379;50.962;6.960;2022-09-29T14:16:21;15.60;99.90
35246;DHT22;21379;50.962;6.960;2022-09-29T14:18:54;15.70;99.90
35246;DHT22;21379;50.962;6.960;2022-09-29T14:21:50;15.70;99.90
35246;DHT22;21379;50.962;6.960;2022-09-29T14:24:40;15.60;99.90
35246;DHT22;21379;50.962;6.960;2022-09-29T14:27:23;15.50;99.90
35246;DHT22;21379;50.962;6.960;2022-09-29T14:29:56;15.50;99.90
35246;DHT22;21379;50.962;6.960;2022-09-29T14:32:33;15.60;99.90
35246;DHT22;21379;50.962;6.960;2022-09-29T14:35:03;15.60;99.90
35246;DHT22;21379;50.962;6.960;2022-09-29T14:37:40;15.50;99.90
35246;DHT22;21379;50.962;6.960;2022-09-29T14:40:07;15.40;99.90
35246;DHT22;21379;50.962;6.960;2022-09-29T14:43:04;15.30;99.90
35246;DHT22;21379;50.962;6.960;2022-09-29T14:45:39;15.40;99.90
35246;DHT22;21379;50.962;6.960;2022-09-29T14:48:32;15.40;99.90
35246;DHT22;21379;50.962;6.960;2022-09-29T14:51:24;15.50;99.90
35246;DHT22;21379;50.962;6.960;2022-09-29T14:54:21;15.30;99.90
35246;DHT22;21379;50.962;6.960;2022-09-29T14:56:58;15.40;99.90
35246;DHT22;21379;50.962;6.960;2022-09-29T14:59:45;15.40;99.90
35246;DHT22;21379;50.962;6.960;2022-09-29T15:02:23;15.40;99.90
35246;DHT22;21379;50.962;6.960;2022-09-29T15:04:51;15.30;99.90
35246;DHT22;21379;50.962;6.960;2022-09-29T15:07:21;15.30;99.90
35246;DHT22;21379;50.962;6.960;2022-09-29T15:09:51;15.30;99.90
35246;DHT22;21379;50.962;6.960;2022-09-29T15:12:21;15.20;99.90
35246;DHT22;21379;50.962;6.960;2022-09-29T15:14:51;15.20;99.90
35246;DHT22;21379;50.962;6.960;2022-09-29T15:17:32;15.20;99.90
35246;DHT22;21379;50.962;6.960;2022-09-29T15:20:07;15.20;99.90
35246;DHT22;21379;50.962;6.960;2022-09-29T15:23:01;15.10;99.90
35246;DHT22;21379;50.962;6.960;2022-09-29T15:25:33;15.20;99.90
35246;DHT22;21379;50.962;6.960;2022-09-29T15:28:02;15.10;99.90
35246;DHT22;21379;50.962;6.960;2022-09-29T15:30:30;15.10;99.90
35246;DHT22;21379;50.962;6.960;2022-09-29T15:33:15;15.10;99.90
35246;DHT22;21379;50.962;6.960;2022-09-29T15:35:46;15.00;99.90
35246;DHT22;21379;50.962;6.960;2022-09-29T15:38:25;15.00;99.90
35246;DHT22;21379;50.962;6.960;2022-09-29T15:41:00;15.00;99.90
35246;DHT22;21379;50.962;6.960;2022-09-29T15:43:29;14.90;99.90
35246;DHT22;21379;50.962;6.960;2022-09-29T15:46:00;14.90;99.90
35246;DHT22;21379;50.962;6.960;2022-09-29T15:48:29;14.80;99.90
35246;DHT22;21379;50.962;6.960;2022-09-29T15:50:57;14.70;99.90
35246;DHT22;21379;50.962;6.960;2022-09-29T15:53:26;14.70;99.90
35246;DHT22;21379;50.962;6.960;2022-09-29T15:55:54;14.70;99.90
35246;DHT22;21379;50.962;6.960;2022-09-29T15:58:43;14.60;99.90
35246;DHT22;21379;50.962;6.960;2022-09-29T16:01:13;14.60;99.90
35246;DHT22;21379;50.962;6.960;2022-09-29T16:03:43;14.50;99.90
35246;DHT22;21379;50.962;6.960;2022-09-29T16:06:24;14.50;99.90
35246;DHT22;21379;50.962;6.960;2022-09-29T16:08:55;14.50;99.90
35246;DHT22;21379;50.962;6.960;2022-09-29T16:11:25;14.40;99.90
35246;DHT22;21379;50.962;6.960;2022-09-29T16:13:59;14.30;99.90
35246;DHT22;21379;50.962;6.960;2022-09-29T16:16:31;14.30;99.90
35246;DHT22;21379;50.962;6.960;2022-09-29T16:19:02;14.20;99.90
35246;DHT22;21379;50.962;6.960;2022-09-29T16:21:33;14.20;99.90
35246;DHT22;21379;50.962;6.960;2022-09-29T16:24:09;14.10;99.90